createdAt,value
2023-04-08T00:00:08.190Z,76.97
2023-04-08T00:02:39.209Z,76.09
2023-04-08T00:05:13.501Z,75.53
2023-04-08T00:07:44.163Z,74.89
2023-04-08T00:10:14.945Z,75.50
2023-04-08T00:12:47.003Z,75.92
2023-04-08T00:15:16.460Z,75.21
2023-04-08T00:17:47.297Z,75.72
2023-04-08T00:20:18.228Z,72.84
2023-04-08T00:22:51.079Z,72.33
2023-04-08T00:25:23.472Z,72.77
2023-04-08T00:27:55.529Z,74.00
2023-04-08T00:30:31.601Z,73.82
2023-04-08T00:33:02.675Z,73.66
2023-04-08T00:35:32.532Z,73.08
2023-04-08T00:38:03.557Z,70.03
2023-04-08T00:40:34.101Z,68.48
2023-04-08T00:43:04.928Z,68.56
2023-04-08T00:45:34.842Z,68.29
2023-04-08T00:48:07.365Z,68.68
2023-04-08T00:50:37.650Z,68.71
2023-04-08T00:53:08.322Z,69.84
2023-04-08T00:55:45.971Z,70.96
2023-04-08T00:58:17.000Z,69.90
2023-04-08T01:00:52.201Z,69.26
2023-04-08T01:03:23.056Z,69.53
2023-04-08T01:06:27.186Z,71.17
2023-04-08T01:09:04.828Z,70.12
2023-04-08T01:11:38.377Z,70.67
2023-04-08T01:14:09.416Z,70.61
2023-04-08T01:16:43.437Z,71.33
2023-04-08T01:19:32.634Z,71.58
2023-04-08T01:22:47.887Z,73.13
2023-04-08T01:25:20.704Z,73.03
2023-04-08T01:27:52.494Z,74.40
2023-04-08T01:30:24.514Z,73.72
2023-04-08T01:32:56.109Z,73.91
2023-04-08T01:35:27.734Z,74.33
2023-04-08T01:37:59.920Z,76.19
2023-04-08T01:40:32.372Z,77.14
2023-04-08T01:43:07.780Z,76.70
2023-04-08T01:45:39.824Z,78.04
2023-04-08T01:48:12.151Z,78.53
2023-04-08T01:50:47.033Z,78.95
2023-04-08T01:53:16.934Z,79.46
2023-04-08T01:55:52.741Z,80.32
2023-04-08T01:58:22.632Z,76.21
2023-04-08T02:00:54.229Z,74.64
2023-04-08T02:03:25.098Z,72.43
2023-04-08T02:05:54.716Z,71.34
2023-04-08T02:08:25.436Z,69.92
2023-04-08T02:10:55.382Z,70.97
2023-04-08T02:13:26.030Z,74.72
2023-04-08T02:16:05.934Z,71.75
2023-04-08T02:18:34.773Z,68.21
2023-04-08T02:21:08.762Z,66.19
2023-04-08T02:23:38.031Z,66.54
2023-04-08T02:26:08.022Z,66.05
2023-04-08T02:28:36.155Z,65.22
2023-04-08T02:31:14.383Z,65.64
2023-04-08T02:33:42.776Z,64.58
2023-04-08T02:36:15.005Z,65.17
2023-04-08T02:38:48.664Z,64.32
2023-04-08T02:41:23.034Z,64.36
2023-04-08T02:43:51.126Z,64.42
2023-04-08T02:46:17.417Z,64.66
2023-04-08T02:48:45.313Z,66.32
2023-04-08T02:51:17.837Z,64.98
2023-04-08T02:53:48.780Z,64.44
2023-04-08T02:56:19.280Z,64.83
2023-04-08T02:58:52.833Z,66.96
2023-04-08T03:01:24.081Z,67.05
2023-04-08T03:03:54.599Z,69.78
2023-04-08T03:06:25.130Z,68.12
2023-04-08T03:08:55.856Z,68.14
2023-04-08T03:11:26.773Z,68.88
2023-04-08T03:13:57.894Z,69.57
2023-04-08T03:16:31.891Z,69.26
2023-04-08T03:19:02.518Z,70.00
2023-04-08T03:21:33.450Z,69.09
2023-04-08T03:24:04.261Z,69.60
2023-04-08T03:26:34.730Z,68.71
2023-04-08T03:29:06.191Z,69.37
2023-04-08T03:31:35.422Z,68.78
2023-04-08T03:34:09.218Z,69.62
2023-04-08T03:36:39.580Z,69.79
2023-04-08T03:39:09.726Z,69.24
2023-04-08T03:41:40.209Z,69.90
2023-04-08T03:44:10.638Z,70.37
2023-04-08T03:46:41.012Z,71.17
2023-04-08T03:49:11.443Z,73.73
2023-04-08T03:51:45.469Z,74.43
2023-04-08T03:54:15.746Z,71.83
2023-04-08T03:56:45.898Z,71.91
2023-04-08T03:59:16.474Z,70.06
2023-04-08T04:01:47.022Z,69.64
2023-04-08T04:04:17.786Z,68.75
2023-04-08T04:06:48.470Z,69.52
2023-04-08T04:09:22.834Z,71.11
2023-04-08T04:11:53.045Z,73.49
2023-04-08T04:14:23.310Z,71.88
2023-04-08T04:16:53.751Z,73.69
2023-04-08T04:19:24.356Z,73.48
2023-04-08T04:21:55.058Z,74.18
2023-04-08T04:24:25.563Z,77.42
2023-04-08T04:26:59.235Z,75.84
2023-04-08T04:29:31.182Z,75.71
2023-04-08T04:32:00.156Z,79.26
2023-04-08T04:34:30.398Z,89.03
2023-04-08T04:37:01.851Z,92.50
2023-04-08T04:39:31.678Z,97.78
2023-04-08T04:42:02.879Z,95.76
2023-04-08T04:44:34.772Z,95.61
2023-04-08T04:47:06.107Z,97.27
2023-04-08T04:49:36.643Z,98.82
2023-04-08T04:52:10.937Z,100.00
2023-04-08T04:54:41.408Z,100.00
2023-04-08T04:57:12.539Z,100.00
2023-04-08T04:59:44.090Z,100.00
2023-04-08T05:02:15.826Z,100.00
2023-04-08T05:04:46.279Z,100.00
2023-04-08T05:07:16.491Z,100.00
2023-04-08T05:09:50.285Z,100.00
2023-04-08T05:12:21.232Z,100.00
2023-04-08T05:14:51.614Z,100.00
2023-04-08T05:17:22.833Z,100.00
2023-04-08T05:19:53.447Z,100.00
2023-04-08T05:22:24.795Z,100.00
2023-04-08T05:24:56.081Z,100.00
2023-04-08T05:27:29.075Z,100.00
2023-04-08T05:29:59.576Z,100.00
2023-04-08T05:32:29.809Z,100.00
2023-04-08T05:35:04.100Z,100.00
2023-04-08T05:37:35.746Z,100.00
2023-04-08T05:40:06.823Z,100.00
2023-04-08T05:42:37.195Z,100.00
2023-04-08T05:45:09.638Z,100.00
2023-04-08T05:47:38.517Z,100.00
2023-04-08T05:50:09.253Z,100.00
2023-04-08T05:52:44.728Z,100.00
2023-04-08T05:55:14.898Z,100.00
2023-04-08T05:57:45.298Z,100.00
2023-04-08T06:00:19.379Z,100.00
2023-04-08T06:02:49.361Z,100.00
2023-04-08T06:05:20.612Z,100.00
2023-04-08T06:07:51.771Z,100.00
2023-04-08T06:10:22.362Z,100.00
2023-04-08T06:12:52.719Z,100.00
2023-04-08T06:15:23.188Z,100.00
2023-04-08T06:17:58.419Z,100.00
2023-04-08T06:20:29.438Z,100.00
2023-04-08T06:22:59.469Z,100.00
2023-04-08T06:25:42.607Z,100.00
2023-04-08T06:28:12.128Z,100.00
2023-04-08T06:30:42.888Z,100.00
2023-04-08T06:33:12.955Z,100.00
2023-04-08T06:35:43.838Z,100.00
2023-04-08T06:38:13.970Z,100.00
2023-04-08T06:40:44.647Z,100.00
2023-04-08T06:43:18.351Z,100.00
2023-04-08T06:45:49.336Z,100.00
2023-04-08T06:48:19.071Z,100.00
2023-04-08T06:50:49.848Z,100.00
2023-04-08T06:53:20.744Z,100.00
2023-04-08T06:55:51.655Z,100.00
2023-04-08T06:58:21.147Z,100.00
2023-04-08T07:00:56.746Z,100.00
2023-04-08T07:03:26.542Z,100.00
2023-04-08T07:05:57.179Z,100.00
2023-04-08T07:08:27.910Z,100.00
2023-04-08T07:10:58.329Z,100.00
2023-04-08T07:13:28.814Z,100.00
2023-04-08T07:15:59.632Z,100.00
2023-04-08T07:18:33.555Z,100.00
2023-04-08T07:21:04.143Z,100.00
2023-04-08T07:23:34.703Z,100.00
2023-04-08T07:26:05.866Z,100.00
2023-04-08T07:28:36.651Z,100.00
2023-04-08T07:31:16.393Z,100.00
2023-04-08T07:33:43.737Z,100.00
2023-04-08T07:36:14.614Z,100.00
2023-04-08T07:38:44.788Z,100.00
2023-04-08T07:41:15.300Z,100.00
2023-04-08T07:43:49.168Z,100.00
2023-04-08T07:46:20.532Z,100.00
2023-04-08T07:48:52.124Z,100.00
2023-04-08T07:51:22.436Z,100.00
2023-04-08T07:53:53.088Z,100.00
2023-04-08T07:56:23.052Z,100.00
2023-04-08T07:58:54.008Z,100.00
2023-04-08T08:01:30.453Z,100.00
2023-04-08T08:03:58.878Z,100.00
2023-04-08T08:06:31.681Z,100.00
2023-04-08T08:09:00.531Z,100.00
2023-04-08T08:11:30.577Z,100.00
2023-04-08T08:14:01.492Z,100.00
2023-04-08T08:16:33.021Z,100.00
2023-04-08T08:19:08.080Z,100.00
2023-04-08T08:21:37.175Z,100.00
2023-04-08T08:24:07.518Z,100.00
2023-04-08T08:26:38.081Z,100.00
2023-04-08T08:29:08.559Z,100.00
2023-04-08T08:31:39.693Z,100.00
2023-04-08T08:34:10.827Z,100.00
2023-04-08T08:36:47.096Z,100.00
2023-04-08T08:39:18.180Z,100.00
2023-04-08T08:41:50.089Z,100.00
2023-04-08T08:44:25.159Z,100.00
2023-04-08T08:46:55.279Z,100.00
2023-04-08T08:49:26.513Z,100.00
2023-04-08T08:51:58.002Z,100.00
2023-04-08T08:54:28.189Z,100.00
2023-04-08T08:56:59.316Z,100.00
2023-04-08T08:59:30.369Z,100.00
2023-04-08T09:02:23.304Z,100.00
2023-04-08T09:05:00.538Z,100.00
2023-04-08T09:07:36.668Z,100.00
2023-04-08T09:10:03.538Z,100.00
2023-04-08T09:12:30.665Z,100.00
2023-04-08T09:15:08.493Z,100.00
2023-04-08T09:17:38.872Z,100.00
2023-04-08T09:20:11.415Z,100.00
2023-04-08T09:22:57.534Z,100.00
2023-04-08T09:25:28.396Z,100.00
2023-04-08T09:27:54.934Z,100.00
2023-04-08T09:30:22.795Z,100.00
2023-04-08T09:32:57.000Z,100.00
2023-04-08T09:35:26.349Z,100.00
2023-04-08T09:37:57.011Z,100.00
2023-04-08T09:40:37.183Z,100.00
2023-04-08T09:43:08.806Z,100.00
2023-04-08T09:45:42.005Z,100.00
2023-04-08T09:48:24.309Z,100.00
2023-04-08T09:50:51.146Z,100.00
2023-04-08T09:53:37.321Z,100.00
2023-04-08T09:56:10.232Z,100.00
2023-04-08T09:58:49.009Z,100.00
2023-04-08T10:01:16.076Z,100.00
2023-04-08T10:03:55.089Z,100.00
2023-04-08T10:06:21.780Z,100.00
2023-04-08T10:08:48.090Z,100.00
2023-04-08T10:11:23.611Z,100.00
2023-04-08T10:13:55.449Z,100.00
2023-04-08T10:16:29.332Z,100.00
2023-04-08T10:19:01.964Z,100.00
2023-04-08T10:21:39.206Z,100.00
2023-04-08T10:24:07.275Z,100.00
2023-04-08T10:26:37.760Z,100.00
2023-04-08T10:29:17.896Z,100.00
2023-04-08T10:31:49.949Z,100.00
2023-04-08T10:34:23.985Z,100.00
2023-04-08T10:36:51.481Z,100.00
2023-04-08T10:39:21.838Z,100.00
2023-04-08T10:41:52.371Z,100.00
2023-04-08T10:44:30.081Z,100.00
2023-04-08T10:47:01.129Z,100.00
2023-04-08T10:49:33.362Z,100.00
2023-04-08T10:52:06.931Z,100.00
2023-04-08T10:54:37.786Z,100.00
2023-04-08T10:57:07.277Z,100.00
2023-04-08T10:59:39.139Z,100.00
2023-04-08T11:02:13.994Z,100.00
2023-04-08T11:04:43.931Z,100.00
2023-04-08T11:07:10.152Z,100.00
2023-04-08T11:09:43.735Z,100.00
2023-04-08T11:12:18.063Z,100.00
2023-04-08T11:14:51.957Z,100.00
2023-04-08T11:17:18.370Z,100.00
2023-04-08T11:19:45.895Z,100.00
2023-04-08T11:22:12.351Z,100.00
2023-04-08T11:24:38.808Z,100.00
2023-04-08T11:27:08.128Z,100.00
2023-04-08T11:29:39.272Z,100.00
2023-04-08T11:32:10.438Z,100.00
2023-04-08T11:34:41.560Z,100.00
2023-04-08T11:37:16.723Z,100.00
2023-04-08T11:39:47.608Z,100.00
2023-04-08T11:42:29.006Z,100.00
2023-04-08T11:45:00.446Z,100.00
2023-04-08T11:47:36.703Z,100.00
2023-04-08T11:50:03.497Z,100.00
2023-04-08T11:52:46.617Z,100.00
2023-04-08T11:55:22.868Z,100.00
2023-04-08T11:57:50.423Z,100.00
2023-04-08T12:00:27.275Z,100.00
2023-04-08T12:02:53.459Z,100.00
2023-04-08T12:05:20.873Z,100.00
2023-04-08T12:07:51.489Z,100.00
2023-04-08T12:10:24.446Z,100.00
2023-04-08T12:12:55.157Z,100.00
2023-04-08T12:15:26.063Z,100.00
2023-04-08T12:18:00.736Z,100.00
2023-04-08T12:20:31.421Z,100.00
2023-04-08T12:23:02.418Z,100.00
2023-04-08T12:25:37.894Z,100.00
2023-04-08T12:28:10.796Z,100.00
2023-04-08T12:30:40.867Z,100.00
2023-04-08T12:33:11.538Z,100.00
2023-04-08T12:35:42.967Z,100.00
2023-04-08T12:38:13.904Z,100.00
2023-04-08T12:40:44.650Z,100.00
2023-04-08T12:43:20.292Z,100.00
2023-04-08T12:45:50.497Z,100.00
2023-04-08T12:48:20.262Z,100.00
2023-04-08T12:50:50.333Z,100.00
2023-04-08T12:53:21.231Z,100.00
2023-04-08T12:55:56.283Z,100.00
2023-04-08T12:58:24.669Z,100.00
2023-04-08T13:00:54.213Z,100.00
2023-04-08T13:03:25.199Z,100.00
2023-04-08T13:05:56.215Z,100.00
2023-04-08T13:08:30.583Z,100.00
2023-04-08T13:11:01.550Z,100.00
2023-04-08T13:13:31.854Z,100.00
2023-04-08T13:16:03.412Z,100.00
2023-04-08T13:18:33.086Z,100.00
2023-04-08T13:21:03.776Z,100.00
2023-04-08T13:23:34.628Z,100.00
2023-04-08T13:26:08.814Z,100.00
2023-04-08T13:28:53.785Z,100.00
2023-04-08T13:31:23.081Z,100.00
2023-04-08T13:33:56.958Z,100.00
2023-04-08T13:36:24.360Z,100.00
2023-04-08T13:38:51.322Z,100.00
2023-04-08T13:41:18.180Z,100.00
2023-04-08T13:43:49.704Z,100.00
2023-04-08T13:46:19.222Z,100.00
2023-04-08T13:48:49.651Z,100.00
2023-04-08T13:51:21.284Z,100.00
2023-04-08T13:53:52.006Z,100.00
2023-04-08T13:56:22.640Z,100.00
2023-04-08T13:58:57.120Z,100.00
2023-04-08T14:01:24.809Z,100.00
2023-04-08T14:03:56.491Z,100.00
2023-04-08T14:06:28.081Z,100.00
2023-04-08T14:09:02.544Z,100.00
2023-04-08T14:11:33.267Z,100.00
2023-04-08T14:14:03.452Z,100.00
2023-04-08T14:16:35.274Z,100.00
2023-04-08T14:19:04.381Z,100.00
2023-04-08T14:21:34.743Z,100.00
2023-04-08T14:24:05.870Z,100.00
2023-04-08T14:26:40.151Z,100.00
2023-04-08T14:29:09.950Z,100.00
2023-04-08T14:31:40.534Z,100.00
2023-04-08T14:34:10.688Z,100.00
2023-04-08T14:36:41.026Z,99.90
2023-04-08T14:39:12.942Z,99.92
2023-04-08T14:41:42.530Z,99.11
2023-04-08T14:44:16.512Z,97.41
2023-04-08T14:46:47.452Z,100.00
2023-04-08T14:49:17.610Z,100.00
2023-04-08T14:51:48.109Z,100.00
2023-04-08T14:54:18.527Z,100.00
2023-04-08T14:56:49.229Z,100.00
2023-04-08T14:59:19.583Z,100.00
2023-04-08T15:01:56.359Z,100.00
2023-04-08T15:04:26.547Z,100.00
2023-04-08T15:06:56.755Z,100.00
2023-04-08T15:09:27.436Z,100.00
2023-04-08T15:11:58.056Z,100.00
2023-04-08T15:14:28.502Z,100.00
2023-04-08T15:16:59.371Z,100.00
2023-04-08T15:19:31.830Z,100.00
2023-04-08T15:22:02.692Z,100.00
2023-04-08T15:24:33.051Z,100.00
2023-04-08T15:27:06.297Z,100.00
2023-04-08T15:29:37.266Z,100.00
2023-04-08T15:32:08.090Z,100.00
2023-04-08T15:34:38.872Z,100.00
2023-04-08T15:37:10.305Z,100.00
2023-04-08T15:39:41.396Z,100.00
2023-04-08T15:42:12.523Z,100.00
2023-04-08T15:44:46.189Z,100.00
2023-04-08T15:47:17.381Z,100.00
2023-04-08T15:49:48.102Z,100.00
2023-04-08T15:52:18.717Z,100.00
2023-04-08T15:54:49.296Z,100.00
2023-04-08T15:57:25.715Z,100.00
2023-04-08T15:59:56.636Z,100.00
2023-04-08T16:02:29.118Z,100.00
2023-04-08T16:04:59.335Z,100.00
2023-04-08T16:07:30.640Z,100.00
2023-04-08T16:10:05.810Z,100.00
2023-04-08T16:12:35.621Z,100.00
2023-04-08T16:15:06.137Z,100.00
2023-04-08T16:17:36.467Z,100.00
2023-04-08T16:20:07.558Z,100.00
2023-04-08T16:22:37.378Z,100.00
2023-04-08T16:25:08.701Z,100.00
2023-04-08T16:27:42.352Z,100.00
2023-04-08T16:30:13.192Z,100.00
2023-04-08T16:32:43.723Z,100.00
2023-04-08T16:35:14.745Z,100.00
2023-04-08T16:37:45.103Z,100.00
2023-04-08T16:40:15.696Z,100.00
2023-04-08T16:42:46.628Z,100.00
2023-04-08T16:45:20.488Z,100.00
2023-04-08T16:47:50.838Z,100.00
2023-04-08T16:50:21.637Z,100.00
2023-04-08T16:52:51.952Z,100.00
2023-04-08T16:55:22.181Z,100.00
2023-04-08T16:57:52.771Z,100.00
2023-04-08T17:00:23.915Z,100.00
2023-04-08T17:02:58.566Z,100.00
2023-04-08T17:05:28.494Z,100.00
2023-04-08T17:07:59.827Z,100.00
2023-04-08T17:10:30.586Z,100.00
2023-04-08T17:13:01.098Z,100.00
2023-04-08T17:15:34.872Z,100.00
2023-04-08T17:18:03.485Z,100.00
2023-04-08T17:20:36.804Z,100.00
2023-04-08T17:23:07.632Z,100.00
2023-04-08T17:25:37.771Z,100.00
2023-04-08T17:28:12.464Z,100.00
2023-04-08T17:30:44.315Z,100.00
2023-04-08T17:33:15.623Z,100.00
2023-04-08T17:35:46.508Z,100.00
2023-04-08T17:38:17.301Z,100.00
2023-04-08T17:40:47.863Z,100.00
2023-04-08T17:43:18.564Z,100.00
2023-04-08T17:45:52.478Z,100.00
2023-04-08T17:48:22.097Z,100.00
2023-04-08T17:51:03.196Z,100.00
2023-04-08T17:53:35.331Z,100.00
2023-04-08T17:56:01.417Z,100.00
2023-04-08T17:58:30.836Z,100.00
2023-04-08T18:01:01.656Z,100.00
2023-04-08T18:03:32.118Z,100.00
2023-04-08T18:06:02.796Z,100.00
2023-04-08T18:08:34.700Z,100.00
2023-04-08T18:11:12.713Z,100.00
2023-04-08T18:13:45.269Z,100.00
2023-04-08T18:16:16.580Z,100.00
2023-04-08T18:18:49.780Z,100.00
2023-04-08T18:21:22.312Z,100.00
2023-04-08T18:23:52.806Z,100.00
2023-04-08T18:26:23.364Z,100.00
2023-04-08T18:28:53.924Z,100.00
2023-04-08T18:31:24.892Z,100.00
2023-04-08T18:33:55.533Z,100.00
2023-04-08T18:36:31.107Z,100.00
2023-04-08T18:39:02.188Z,100.00
2023-04-08T18:41:32.239Z,100.00
2023-04-08T18:44:06.778Z,100.00
2023-04-08T18:46:38.175Z,100.00
2023-04-08T18:49:08.703Z,100.00
2023-04-08T18:51:42.162Z,100.00
2023-04-08T18:54:12.566Z,100.00
2023-04-08T18:56:45.180Z,100.00
2023-04-08T18:59:15.794Z,100.00
2023-04-08T19:01:48.551Z,100.00
2023-04-08T19:04:19.338Z,100.00
2023-04-08T19:06:49.940Z,100.00
2023-04-08T19:09:23.829Z,100.00
2023-04-08T19:11:56.687Z,100.00
2023-04-08T19:14:27.127Z,100.00
2023-04-08T19:16:57.185Z,100.00
2023-04-08T19:19:27.834Z,100.00
2023-04-08T19:22:00.057Z,100.00
2023-04-08T19:24:31.672Z,100.00
2023-04-08T19:27:07.417Z,100.00
2023-04-08T19:29:37.764Z,100.00
2023-04-08T19:32:08.081Z,100.00
2023-04-08T19:34:41.622Z,100.00
2023-04-08T19:37:12.998Z,100.00
2023-04-08T19:39:43.519Z,100.00
2023-04-08T19:42:14.754Z,100.00
2023-04-08T19:44:48.830Z,100.00
2023-04-08T19:47:17.008Z,100.00
2023-04-08T19:49:47.518Z,100.00
2023-04-08T19:52:21.388Z,100.00
2023-04-08T19:54:52.558Z,100.00
2023-04-08T19:57:23.663Z,100.00
2023-04-08T19:59:53.908Z,100.00
2023-04-08T20:02:24.572Z,100.00
2023-04-08T20:04:54.408Z,100.00
2023-04-08T20:07:25.140Z,100.00
2023-04-08T20:09:59.751Z,100.00
2023-04-08T20:12:32.536Z,100.00
2023-04-08T20:15:03.440Z,100.00
2023-04-08T20:17:33.157Z,100.00
2023-04-08T20:20:04.918Z,100.00
2023-04-08T20:22:35.069Z,100.00
2023-04-08T20:25:05.938Z,100.00
2023-04-08T20:27:40.606Z,100.00
2023-04-08T20:30:11.440Z,100.00
2023-04-08T20:32:41.109Z,100.00
2023-04-08T20:35:12.639Z,100.00
2023-04-08T20:37:43.021Z,100.00
2023-04-08T20:40:14.995Z,100.00
2023-04-08T20:42:45.025Z,100.00
2023-04-08T20:45:18.507Z,100.00
2023-04-08T20:47:49.178Z,100.00
2023-04-08T20:50:19.516Z,100.00
2023-04-08T20:52:53.077Z,100.00
2023-04-08T20:55:24.352Z,100.00
2023-04-08T20:57:55.608Z,100.00
2023-04-08T21:00:25.839Z,100.00
2023-04-08T21:02:57.164Z,100.00
2023-04-08T21:05:27.278Z,100.00
2023-04-08T21:07:57.829Z,100.00
2023-04-08T21:10:31.866Z,100.00
2023-04-08T21:13:03.924Z,100.00
2023-04-08T21:15:34.586Z,100.00
2023-04-08T21:18:05.883Z,100.00
2023-04-08T21:20:38.608Z,100.00
2023-04-08T21:23:06.891Z,100.00
2023-04-08T21:25:37.527Z,100.00
2023-04-08T21:28:12.479Z,100.00
2023-04-08T21:30:43.386Z,100.00
2023-04-08T21:33:13.818Z,100.00
2023-04-08T21:35:46.825Z,100.00
2023-04-08T21:38:18.380Z,100.00
2023-04-08T21:40:49.222Z,100.00
2023-04-08T21:43:19.712Z,100.00
2023-04-08T21:45:52.820Z,100.00
2023-04-08T21:48:21.336Z,100.00
2023-04-08T21:50:53.099Z,100.00
2023-04-08T21:53:27.020Z,100.00
2023-04-08T21:55:58.091Z,100.00
2023-04-08T21:58:28.751Z,100.00
2023-04-08T22:00:59.601Z,100.00
2023-04-08T22:03:30.291Z,100.00
2023-04-08T22:06:00.617Z,100.00
2023-04-08T22:08:32.082Z,100.00
2023-04-08T22:11:10.401Z,100.00
2023-04-08T22:13:36.582Z,100.00
2023-04-08T22:16:07.104Z,100.00
2023-04-08T22:18:37.437Z,100.00
2023-04-08T22:21:08.188Z,100.00
2023-04-08T22:23:40.011Z,100.00
2023-04-08T22:26:10.592Z,100.00
2023-04-08T22:28:43.381Z,100.00
2023-04-08T22:31:14.147Z,100.00
2023-04-08T22:33:45.508Z,100.00
2023-04-08T22:36:19.689Z,100.00
2023-04-08T22:38:51.383Z,100.00
2023-04-08T22:41:22.788Z,100.00
2023-04-08T22:43:52.855Z,100.00
2023-04-08T22:46:24.230Z,100.00
2023-04-08T22:48:54.731Z,100.00
2023-04-08T22:51:25.469Z,100.00
2023-04-08T22:54:00.468Z,100.00
2023-04-08T22:56:30.397Z,100.00
2023-04-08T22:59:00.661Z,100.00
2023-04-08T23:01:35.197Z,100.00
2023-04-08T23:04:05.371Z,100.00
2023-04-08T23:06:35.949Z,100.00
2023-04-08T23:09:06.329Z,100.00
2023-04-08T23:11:37.145Z,100.00
2023-04-08T23:14:07.159Z,100.00
2023-04-08T23:16:38.209Z,100.00
2023-04-08T23:19:12.223Z,100.00
2023-04-08T23:21:42.675Z,100.00
2023-04-08T23:24:13.600Z,100.00
2023-04-08T23:26:44.173Z,100.00
2023-04-08T23:29:15.322Z,100.00
2023-04-08T23:31:45.847Z,100.00
2023-04-08T23:34:16.763Z,100.00
2023-04-08T23:36:50.097Z,100.00
2023-04-08T23:39:22.137Z,100.00
2023-04-08T23:41:52.417Z,100.00
2023-04-08T23:44:23.106Z,100.00
2023-04-08T23:46:53.987Z,100.00
2023-04-08T23:49:25.105Z,100.00
2023-04-08T23:51:55.572Z,100.00
2023-04-08T23:54:32.964Z,100.00
2023-04-08T23:57:01.072Z,100.00
2023-04-08T23:59:31.140Z,100.00
